sensor_id;sensor_type;location;lat;lon;timestamp;temperature;humidity
16503;DHT22;53067;48.114;11.694;2022-09-14T00:01:17;20.50;68.50
16503;DHT22;53067;48.114;11.694;2022-09-14T00:03:45;20.40;68.60
16503;DHT22;53067;48.114;11.694;2022-09-14T00:06:15;20.40;68.80
16503;DHT22;53067;48.114;11.694;2022-09-14T00:08:43;20.40;68.60
16503;DHT22;53067;48.114;11.694;2022-09-14T00:11:12;20.30;68.60
16503;DHT22;53067;48.114;11.694;2022-09-14T00:13:42;20.40;68.50
16503;DHT22;53067;48.114;11.694;2022-09-14T00:16:16;20.30;68.30
16503;DHT22;53067;48.114;11.694;2022-09-14T00:18:48;20.30;68.30
16503;DHT22;53067;48.114;11.694;2022-09-14T00:21:13;20.30;68.50
16503;DHT22;53067;48.114;11.694;2022-09-14T00:23:41;20.30;68.50
16503;DHT22;53067;48.114;11.694;2022-09-14T00:26:12;20.30;68.60
16503;DHT22;53067;48.114;11.694;2022-09-14T00:28:41;20.30;68.60
16503;DHT22;53067;48.114;11.694;2022-09-14T00:31:09;20.30;68.80
16503;DHT22;53067;48.114;11.694;2022-09-14T00:33:37;20.20;68.80
16503;DHT22;53067;48.114;11.694;2022-09-14T00:36:10;20.20;68.90
16503;DHT22;53067;48.114;11.694;2022-09-14T00:38:38;20.20;68.80
16503;DHT22;53067;48.114;11.694;2022-09-14T00:41:14;20.20;69.00
16503;DHT22;53067;48.114;11.694;2022-09-14T00:44:06;20.20;69.10
16503;DHT22;53067;48.114;11.694;2022-09-14T00:46:43;20.20;69.00
16503;DHT22;53067;48.114;11.694;2022-09-14T00:49:23;20.20;69.10
16503;DHT22;53067;48.114;11.694;2022-09-14T00:51:46;20.20;69.10
16503;DHT22;53067;48.114;11.694;2022-09-14T00:54:13;20.20;69.20
16503;DHT22;53067;48.114;11.694;2022-09-14T00:56:41;20.20;69.30
16503;DHT22;53067;48.114;11.694;2022-09-14T00:59:18;20.20;69.10
16503;DHT22;53067;48.114;11.694;2022-09-14T01:01:46;20.20;69.10
16503;DHT22;53067;48.114;11.694;2022-09-14T01:04:13;20.30;69.20
16503;DHT22;53067;48.114;11.694;2022-09-14T01:06:49;20.20;69.10
16503;DHT22;53067;48.114;11.694;2022-09-14T01:09:23;20.20;69.20
16503;DHT22;53067;48.114;11.694;2022-09-14T01:12:07;20.20;69.10
16503;DHT22;53067;48.114;11.694;2022-09-14T01:17:23;20.20;69.90
16503;DHT22;53067;48.114;11.694;2022-09-14T01:22:50;20.10;69.80
16503;DHT22;53067;48.114;11.694;2022-09-14T01:27:49;20.10;70.10
16503;DHT22;53067;48.114;11.694;2022-09-14T01:30:24;20.10;70.20
16503;DHT22;53067;48.114;11.694;2022-09-14T01:33:14;20.10;70.00
16503;DHT22;53067;48.114;11.694;2022-09-14T01:35:50;20.10;69.80
16503;DHT22;53067;48.114;11.694;2022-09-14T01:38:22;20.10;69.80
16503;DHT22;53067;48.114;11.694;2022-09-14T01:40:49;20.10;69.80
16503;DHT22;53067;48.114;11.694;2022-09-14T01:43:27;20.10;70.00
16503;DHT22;53067;48.114;11.694;2022-09-14T01:45:57;20.10;70.00
16503;DHT22;53067;48.114;11.694;2022-09-14T01:48:33;20.10;69.50
16503;DHT22;53067;48.114;11.694;2022-09-14T01:50:58;20.10;70.00
16503;DHT22;53067;48.114;11.694;2022-09-14T01:53:32;20.10;70.00
16503;DHT22;53067;48.114;11.694;2022-09-14T01:56:18;20.10;70.00
16503;DHT22;53067;48.114;11.694;2022-09-14T01:59:04;20.10;70.10
16503;DHT22;53067;48.114;11.694;2022-09-14T02:01:36;20.10;70.30
16503;DHT22;53067;48.114;11.694;2022-09-14T02:04:07;20.00;70.30
16503;DHT22;53067;48.114;11.694;2022-09-14T02:06:42;20.00;70.50
16503;DHT22;53067;48.114;11.694;2022-09-14T02:09:09;20.00;70.50
16503;DHT22;53067;48.114;11.694;2022-09-14T02:11:37;20.00;70.70
16503;DHT22;53067;48.114;11.694;2022-09-14T02:14:05;20.00;71.60
16503;DHT22;53067;48.114;11.694;2022-09-14T02:16:33;20.00;70.80
16503;DHT22;53067;48.114;11.694;2022-09-14T02:19:00;20.00;70.70
16503;DHT22;53067;48.114;11.694;2022-09-14T02:21:31;20.00;70.60
16503;DHT22;53067;48.114;11.694;2022-09-14T02:23:59;20.00;70.50
16503;DHT22;53067;48.114;11.694;2022-09-14T02:26:28;20.00;70.40
16503;DHT22;53067;48.114;11.694;2022-09-14T02:28:57;20.00;70.50
16503;DHT22;53067;48.114;11.694;2022-09-14T02:37:25;20.00;71.10
16503;DHT22;53067;48.114;11.694;2022-09-14T02:40:17;19.90;70.40
16503;DHT22;53067;48.114;11.694;2022-09-14T02:46:00;19.90;71.20
16503;DHT22;53067;48.114;11.694;2022-09-14T02:48:46;19.80;70.70
16503;DHT22;53067;48.114;11.694;2022-09-14T02:51:25;19.80;71.00
16503;DHT22;53067;48.114;11.694;2022-09-14T02:54:29;19.80;70.90
16503;DHT22;53067;48.114;11.694;2022-09-14T02:56:29;19.80;70.90
16503;DHT22;53067;48.114;11.694;2022-09-14T02:58:57;19.80;70.80
16503;DHT22;53067;48.114;11.694;2022-09-14T03:01:25;19.80;70.80
16503;DHT22;53067;48.114;11.694;2022-09-14T03:03:53;19.80;70.90
16503;DHT22;53067;48.114;11.694;2022-09-14T03:06:21;19.80;70.80
16503;DHT22;53067;48.114;11.694;2022-09-14T03:08:49;19.80;70.80
16503;DHT22;53067;48.114;11.694;2022-09-14T03:11:17;19.90;70.80
16503;DHT22;53067;48.114;11.694;2022-09-14T03:13:44;19.90;70.70
16503;DHT22;53067;48.114;11.694;2022-09-14T03:16:14;19.90;70.80
16503;DHT22;53067;48.114;11.694;2022-09-14T03:18:41;19.90;70.70
16503;DHT22;53067;48.114;11.694;2022-09-14T03:21:12;19.90;70.70
16503;DHT22;53067;48.114;11.694;2022-09-14T03:23:47;19.90;70.70
16503;DHT22;53067;48.114;11.694;2022-09-14T03:26:18;19.90;70.80
16503;DHT22;53067;48.114;11.694;2022-09-14T03:28:51;19.90;70.70
16503;DHT22;53067;48.114;11.694;2022-09-14T03:31:19;19.90;70.60
16503;DHT22;53067;48.114;11.694;2022-09-14T03:33:51;19.90;70.60
16503;DHT22;53067;48.114;11.694;2022-09-14T03:36:17;19.80;70.70
16503;DHT22;53067;48.114;11.694;2022-09-14T03:38:48;19.80;70.70
16503;DHT22;53067;48.114;11.694;2022-09-14T03:41:17;19.80;70.80
16503;DHT22;53067;48.114;11.694;2022-09-14T03:43:45;19.80;70.80
16503;DHT22;53067;48.114;11.694;2022-09-14T03:46:21;19.80;70.90
16503;DHT22;53067;48.114;11.694;2022-09-14T03:48:44;19.80;70.80
16503;DHT22;53067;48.114;11.694;2022-09-14T03:51:12;19.80;70.80
16503;DHT22;53067;48.114;11.694;2022-09-14T03:53:41;19.80;70.80
16503;DHT22;53067;48.114;11.694;2022-09-14T03:56:18;19.80;71.00
16503;DHT22;53067;48.114;11.694;2022-09-14T03:58:41;19.80;71.00
16503;DHT22;53067;48.114;11.694;2022-09-14T04:01:11;19.80;71.20
16503;DHT22;53067;48.114;11.694;2022-09-14T04:03:40;19.80;71.20
16503;DHT22;53067;48.114;11.694;2022-09-14T04:06:08;19.80;71.10
16503;DHT22;53067;48.114;11.694;2022-09-14T04:08:37;19.80;71.10
16503;DHT22;53067;48.114;11.694;2022-09-14T04:11:10;19.70;71.20
16503;DHT22;53067;48.114;11.694;2022-09-14T04:13:38;19.70;71.40
16503;DHT22;53067;48.114;11.694;2022-09-14T04:16:07;19.60;71.40
16503;DHT22;53067;48.114;11.694;2022-09-14T04:18:34;19.60;71.50
16503;DHT22;53067;48.114;11.694;2022-09-14T04:21:12;19.70;71.60
16503;DHT22;53067;48.114;11.694;2022-09-14T04:23:38;19.70;71.40
16503;DHT22;53067;48.114;11.694;2022-09-14T04:26:14;19.70;71.30
16503;DHT22;53067;48.114;11.694;2022-09-14T04:28:42;19.70;71.20
16503;DHT22;53067;48.114;11.694;2022-09-14T04:31:10;19.70;71.20
16503;DHT22;53067;48.114;11.694;2022-09-14T04:33:40;19.80;71.20
16503;DHT22;53067;48.114;11.694;2022-09-14T04:36:12;19.80;71.20
16503;DHT22;53067;48.114;11.694;2022-09-14T04:38:41;19.80;71.30
16503;DHT22;53067;48.114;11.694;2022-09-14T04:41:12;19.80;71.40
16503;DHT22;53067;48.114;11.694;2022-09-14T04:43:40;19.80;71.50
16503;DHT22;53067;48.114;11.694;2022-09-14T04:46:10;19.80;71.50
16503;DHT22;53067;48.114;11.694;2022-09-14T04:48:38;19.80;71.50
16503;DHT22;53067;48.114;11.694;2022-09-14T04:51:15;19.90;71.40
16503;DHT22;53067;48.114;11.694;2022-09-14T04:53:44;19.90;71.40
16503;DHT22;53067;48.114;11.694;2022-09-14T04:56:13;19.90;70.90
16503;DHT22;53067;48.114;11.694;2022-09-14T04:58:46;19.90;70.90
16503;DHT22;53067;48.114;11.694;2022-09-14T05:01:20;20.00;70.80
16503;DHT22;53067;48.114;11.694;2022-09-14T05:03:44;20.00;70.90
16503;DHT22;53067;48.114;11.694;2022-09-14T05:06:14;20.00;70.80
16503;DHT22;53067;48.114;11.694;2022-09-14T05:08:42;20.00;70.50
16503;DHT22;53067;48.114;11.694;2022-09-14T05:11:12;20.10;70.30
16503;DHT22;53067;48.114;11.694;2022-09-14T05:13:40;20.10;70.10
16503;DHT22;53067;48.114;11.694;2022-09-14T05:16:17;20.10;70.00
16503;DHT22;53067;48.114;11.694;2022-09-14T05:18:45;20.10;70.00
16503;DHT22;53067;48.114;11.694;2022-09-14T05:21:14;20.10;70.30
16503;DHT22;53067;48.114;11.694;2022-09-14T05:23:43;20.10;70.40
16503;DHT22;53067;48.114;11.694;2022-09-14T05:26:11;20.10;70.30
16503;DHT22;53067;48.114;11.694;2022-09-14T05:28:39;20.10;70.40
16503;DHT22;53067;48.114;11.694;2022-09-14T05:31:10;20.20;70.40
16503;DHT22;53067;48.114;11.694;2022-09-14T05:33:38;20.20;70.30
16503;DHT22;53067;48.114;11.694;2022-09-14T05:36:07;20.20;70.30
16503;DHT22;53067;48.114;11.694;2022-09-14T05:38:37;20.30;70.20
16503;DHT22;53067;48.114;11.694;2022-09-14T05:41:06;20.40;70.50
16503;DHT22;53067;48.114;11.694;2022-09-14T05:43:34;20.40;70.20
16503;DHT22;53067;48.114;11.694;2022-09-14T05:46:04;20.50;70.20
16503;DHT22;53067;48.114;11.694;2022-09-14T05:48:33;20.60;70.10
16503;DHT22;53067;48.114;11.694;2022-09-14T05:51:08;20.60;69.80
16503;DHT22;53067;48.114;11.694;2022-09-14T05:53:36;20.70;69.70
16503;DHT22;53067;48.114;11.694;2022-09-14T05:56:09;20.80;69.70
16503;DHT22;53067;48.114;11.694;2022-09-14T05:58:35;20.80;69.50
16503;DHT22;53067;48.114;11.694;2022-09-14T06:01:07;20.80;69.50
16503;DHT22;53067;48.114;11.694;2022-09-14T06:03:35;20.90;69.50
16503;DHT22;53067;48.114;11.694;2022-09-14T06:06:03;21.00;69.20
16503;DHT22;53067;48.114;11.694;2022-09-14T06:08:32;21.00;69.10
16503;DHT22;53067;48.114;11.694;2022-09-14T06:11:05;21.00;68.80
16503;DHT22;53067;48.114;11.694;2022-09-14T06:13:34;21.10;69.10
16503;DHT22;53067;48.114;11.694;2022-09-14T06:16:04;21.10;68.80
16503;DHT22;53067;48.114;11.694;2022-09-14T06:18:33;21.10;68.60
16503;DHT22;53067;48.114;11.694;2022-09-14T06:21:01;21.20;68.40
16503;DHT22;53067;48.114;11.694;2022-09-14T06:23:30;21.30;68.20
16503;DHT22;53067;48.114;11.694;2022-09-14T06:25:59;21.30;68.20
16503;DHT22;53067;48.114;11.694;2022-09-14T06:28:28;21.30;68.10
16503;DHT22;53067;48.114;11.694;2022-09-14T06:30:56;21.40;68.30
16503;DHT22;53067;48.114;11.694;2022-09-14T06:33:24;21.30;68.20
16503;DHT22;53067;48.114;11.694;2022-09-14T06:36:00;21.40;68.20
16503;DHT22;53067;48.114;11.694;2022-09-14T06:38:26;21.30;68.70
16503;DHT22;53067;48.114;11.694;2022-09-14T06:40:56;21.30;69.20
16503;DHT22;53067;48.114;11.694;2022-09-14T06:43:27;21.30;69.60
16503;DHT22;53067;48.114;11.694;2022-09-14T06:45:59;21.30;70.00
16503;DHT22;53067;48.114;11.694;2022-09-14T06:48:28;21.30;70.10
16503;DHT22;53067;48.114;11.694;2022-09-14T06:50:56;21.30;70.40
16503;DHT22;53067;48.114;11.694;2022-09-14T06:53:24;21.30;70.60
16503;DHT22;53067;48.114;11.694;2022-09-14T06:55:52;21.30;70.40
16503;DHT22;53067;48.114;11.694;2022-09-14T06:58:20;21.40;70.40
16503;DHT22;53067;48.114;11.694;2022-09-14T07:00:47;21.40;70.40
16503;DHT22;53067;48.114;11.694;2022-09-14T07:03:15;21.40;70.40
16503;DHT22;53067;48.114;11.694;2022-09-14T07:05:42;21.40;70.20
16503;DHT22;53067;48.114;11.694;2022-09-14T07:08:10;21.50;70.30
16503;DHT22;53067;48.114;11.694;2022-09-14T07:10:37;21.50;70.70
16503;DHT22;53067;48.114;11.694;2022-09-14T07:13:05;21.50;71.10
16503;DHT22;53067;48.114;11.694;2022-09-14T07:15:33;21.50;71.50
16503;DHT22;53067;48.114;11.694;2022-09-14T07:18:00;21.60;72.00
16503;DHT22;53067;48.114;11.694;2022-09-14T07:20:28;21.60;71.80
16503;DHT22;53067;48.114;11.694;2022-09-14T07:22:55;21.60;71.60
16503;DHT22;53067;48.114;11.694;2022-09-14T07:25:23;21.60;71.70
16503;DHT22;53067;48.114;11.694;2022-09-14T07:27:50;21.70;71.70
16503;DHT22;53067;48.114;11.694;2022-09-14T07:30:18;21.70;71.30
16503;DHT22;53067;48.114;11.694;2022-09-14T07:32:45;21.70;71.40
16503;DHT22;53067;48.114;11.694;2022-09-14T07:35:13;21.70;71.50
16503;DHT22;53067;48.114;11.694;2022-09-14T07:37:40;21.80;71.60
16503;DHT22;53067;48.114;11.694;2022-09-14T07:40:08;21.80;72.50
16503;DHT22;53067;48.114;11.694;2022-09-14T07:42:37;21.90;71.50
16503;DHT22;53067;48.114;11.694;2022-09-14T07:45:05;21.90;71.70
16503;DHT22;53067;48.114;11.694;2022-09-14T07:47:32;21.90;71.70
16503;DHT22;53067;48.114;11.694;2022-09-14T07:50:00;21.90;71.30
16503;DHT22;53067;48.114;11.694;2022-09-14T07:52:27;22.00;71.00
16503;DHT22;53067;48.114;11.694;2022-09-14T07:54:56;21.90;70.70
16503;DHT22;53067;48.114;11.694;2022-09-14T07:57:24;22.00;70.80
16503;DHT22;53067;48.114;11.694;2022-09-14T07:59:52;22.00;70.60
16503;DHT22;53067;48.114;11.694;2022-09-14T08:02:20;22.10;70.40
16503;DHT22;53067;48.114;11.694;2022-09-14T08:04:48;22.20;70.40
16503;DHT22;53067;48.114;11.694;2022-09-14T08:07:18;22.30;70.20
16503;DHT22;53067;48.114;11.694;2022-09-14T08:09:45;22.30;70.00
16503;DHT22;53067;48.114;11.694;2022-09-14T08:12:14;22.50;69.90
16503;DHT22;53067;48.114;11.694;2022-09-14T08:14:42;22.60;69.20
16503;DHT22;53067;48.114;11.694;2022-09-14T08:17:09;22.70;68.90
16503;DHT22;53067;48.114;11.694;2022-09-14T08:19:37;22.70;68.50
16503;DHT22;53067;48.114;11.694;2022-09-14T08:22:06;22.90;67.90
16503;DHT22;53067;48.114;11.694;2022-09-14T08:24:34;23.00;65.80
16503;DHT22;53067;48.114;11.694;2022-09-14T08:27:01;23.10;65.10
16503;DHT22;53067;48.114;11.694;2022-09-14T08:29:29;23.30;64.20
16503;DHT22;53067;48.114;11.694;2022-09-14T08:31:56;23.40;63.30
16503;DHT22;53067;48.114;11.694;2022-09-14T08:34:24;23.60;63.60
16503;DHT22;53067;48.114;11.694;2022-09-14T08:36:51;23.70;62.00
16503;DHT22;53067;48.114;11.694;2022-09-14T08:39:19;23.80;62.50
16503;DHT22;53067;48.114;11.694;2022-09-14T08:41:58;23.90;60.40
16503;DHT22;53067;48.114;11.694;2022-09-14T08:44:28;24.00;60.20
16503;DHT22;53067;48.114;11.694;2022-09-14T08:47:11;24.10;59.30
16503;DHT22;53067;48.114;11.694;2022-09-14T08:49:44;24.20;59.60
16503;DHT22;53067;48.114;11.694;2022-09-14T08:52:33;24.30;59.30
16503;DHT22;53067;48.114;11.694;2022-09-14T08:58:01;24.60;57.80
16503;DHT22;53067;48.114;11.694;2022-09-14T09:00:20;24.80;57.70
16503;DHT22;53067;48.114;11.694;2022-09-14T09:03:10;24.90;56.70
16503;DHT22;53067;48.114;11.694;2022-09-14T09:05:45;25.10;56.20
16503;DHT22;53067;48.114;11.694;2022-09-14T09:10:45;25.40;55.40
16503;DHT22;53067;48.114;11.694;2022-09-14T09:13:17;25.50;55.50
16503;DHT22;53067;48.114;11.694;2022-09-14T09:15:53;25.70;54.60
16503;DHT22;53067;48.114;11.694;2022-09-14T09:18:41;25.80;54.50
16503;DHT22;53067;48.114;11.694;2022-09-14T09:21:26;25.90;54.40
16503;DHT22;53067;48.114;11.694;2022-09-14T09:23:48;25.90;53.90
16503;DHT22;53067;48.114;11.694;2022-09-14T09:26:27;25.90;53.90
16503;DHT22;53067;48.114;11.694;2022-09-14T09:28:57;26.00;53.60
16503;DHT22;53067;48.114;11.694;2022-09-14T09:31:40;26.20;54.10
16503;DHT22;53067;48.114;11.694;2022-09-14T09:34:12;26.30;53.10
16503;DHT22;53067;48.114;11.694;2022-09-14T09:36:45;26.40;53.20
16503;DHT22;53067;48.114;11.694;2022-09-14T09:39:14;26.50;52.80
16503;DHT22;53067;48.114;11.694;2022-09-14T09:41:54;26.60;52.60
16503;DHT22;53067;48.114;11.694;2022-09-14T09:44:21;26.60;52.90
16503;DHT22;53067;48.114;11.694;2022-09-14T09:46:51;26.60;51.80
16503;DHT22;53067;48.114;11.694;2022-09-14T09:49:36;26.60;51.90
16503;DHT22;53067;48.114;11.694;2022-09-14T09:52:15;26.50;52.20
16503;DHT22;53067;48.114;11.694;2022-09-14T09:54:49;26.50;52.70
16503;DHT22;53067;48.114;11.694;2022-09-14T09:57:29;26.50;52.50
16503;DHT22;53067;48.114;11.694;2022-09-14T10:02:50;26.40;52.00
16503;DHT22;53067;48.114;11.694;2022-09-14T10:05:25;26.40;53.00
16503;DHT22;53067;48.114;11.694;2022-09-14T10:07:52;26.30;52.40
16503;DHT22;53067;48.114;11.694;2022-09-14T10:10:40;26.30;52.40
16503;DHT22;53067;48.114;11.694;2022-09-14T10:12:55;26.40;52.20
16503;DHT22;53067;48.114;11.694;2022-09-14T10:15:32;26.50;52.00
16503;DHT22;53067;48.114;11.694;2022-09-14T10:23:26;26.70;51.00
16503;DHT22;53067;48.114;11.694;2022-09-14T10:25:53;26.80;51.90
16503;DHT22;53067;48.114;11.694;2022-09-14T10:28:29;27.00;51.50
16503;DHT22;53067;48.114;11.694;2022-09-14T10:33:48;27.30;50.60
16503;DHT22;53067;48.114;11.694;2022-09-14T10:36:41;27.40;50.50
16503;DHT22;53067;48.114;11.694;2022-09-14T10:39:24;27.50;49.70
16503;DHT22;53067;48.114;11.694;2022-09-14T10:42:00;27.40;49.80
16503;DHT22;53067;48.114;11.694;2022-09-14T10:44:52;27.40;49.70
16503;DHT22;53067;48.114;11.694;2022-09-14T10:47:22;27.30;50.20
16503;DHT22;53067;48.114;11.694;2022-09-14T10:50:07;27.20;51.50
16503;DHT22;53067;48.114;11.694;2022-09-14T10:52:53;27.30;50.90
16503;DHT22;53067;48.114;11.694;2022-09-14T10:55:41;27.40;50.40
16503;DHT22;53067;48.114;11.694;2022-09-14T11:03:43;27.00;50.80
16503;DHT22;53067;48.114;11.694;2022-09-14T11:06:36;27.00;51.40
16503;DHT22;53067;48.114;11.694;2022-09-14T11:09:15;27.00;51.70
16503;DHT22;53067;48.114;11.694;2022-09-14T11:17:36;27.20;51.20
16503;DHT22;53067;48.114;11.694;2022-09-14T11:20:27;27.30;51.00
16503;DHT22;53067;48.114;11.694;2022-09-14T11:23:00;27.50;50.90
16503;DHT22;53067;48.114;11.694;2022-09-14T11:25:41;27.80;50.00
16503;DHT22;53067;48.114;11.694;2022-09-14T11:28:15;27.90;49.20
16503;DHT22;53067;48.114;11.694;2022-09-14T11:31:00;28.10;48.70
16503;DHT22;53067;48.114;11.694;2022-09-14T11:33:34;28.40;47.80
16503;DHT22;53067;48.114;11.694;2022-09-14T11:36:04;28.40;47.80
16503;DHT22;53067;48.114;11.694;2022-09-14T11:38:39;28.40;47.70
16503;DHT22;53067;48.114;11.694;2022-09-14T11:41:28;28.40;47.50
16503;DHT22;53067;48.114;11.694;2022-09-14T11:44:03;28.40;47.40
16503;DHT22;53067;48.114;11.694;2022-09-14T11:46:33;28.30;47.20
16503;DHT22;53067;48.114;11.694;2022-09-14T11:49:21;28.50;46.90
16503;DHT22;53067;48.114;11.694;2022-09-14T11:51:52;29.00;46.20
16503;DHT22;53067;48.114;11.694;2022-09-14T11:54:21;29.40;45.40
16503;DHT22;53067;48.114;11.694;2022-09-14T11:56:52;29.80;44.30
16503;DHT22;53067;48.114;11.694;2022-09-14T11:59:36;30.20;43.70
16503;DHT22;53067;48.114;11.694;2022-09-14T12:15:37;31.20;41.70
16503;DHT22;53067;48.114;11.694;2022-09-14T12:20:58;31.00;41.70
16503;DHT22;53067;48.114;11.694;2022-09-14T12:28:51;30.70;42.50
16503;DHT22;53067;48.114;11.694;2022-09-14T12:32:22;30.60;42.80
16503;DHT22;53067;48.114;11.694;2022-09-14T12:39:29;30.40;43.10
16503;DHT22;53067;48.114;11.694;2022-09-14T12:44:45;30.00;44.20
16503;DHT22;53067;48.114;11.694;2022-09-14T12:49:57;30.00;44.70
16503;DHT22;53067;48.114;11.694;2022-09-14T12:52:49;30.00;43.10
16503;DHT22;53067;48.114;11.694;2022-09-14T12:57:59;29.60;44.20
16503;DHT22;53067;48.114;11.694;2022-09-14T13:00:25;29.50;44.00
16503;DHT22;53067;48.114;11.694;2022-09-14T13:03:09;29.30;44.60
16503;DHT22;53067;48.114;11.694;2022-09-14T13:05:34;29.00;45.00
16503;DHT22;53067;48.114;11.694;2022-09-14T13:08:11;28.90;45.30
16503;DHT22;53067;48.114;11.694;2022-09-14T13:10:37;28.70;45.90
16503;DHT22;53067;48.114;11.694;2022-09-14T13:13:23;28.50;45.70
16503;DHT22;53067;48.114;11.694;2022-09-14T13:15:57;28.30;46.40
16503;DHT22;53067;48.114;11.694;2022-09-14T13:18:30;28.00;47.10
16503;DHT22;53067;48.114;11.694;2022-09-14T13:21:01;27.90;47.50
16503;DHT22;53067;48.114;11.694;2022-09-14T13:23:40;27.80;47.50
16503;DHT22;53067;48.114;11.694;2022-09-14T13:26:07;27.70;48.10
16503;DHT22;53067;48.114;11.694;2022-09-14T13:28:30;27.60;48.20
16503;DHT22;53067;48.114;11.694;2022-09-14T13:30:59;27.50;48.40
16503;DHT22;53067;48.114;11.694;2022-09-14T13:33:30;27.40;48.70
16503;DHT22;53067;48.114;11.694;2022-09-14T13:36:00;27.40;48.50
16503;DHT22;53067;48.114;11.694;2022-09-14T13:38:36;27.30;49.20
16503;DHT22;53067;48.114;11.694;2022-09-14T13:41:07;27.20;49.20
16503;DHT22;53067;48.114;11.694;2022-09-14T13:43:35;27.10;49.60
16503;DHT22;53067;48.114;11.694;2022-09-14T13:46:05;27.10;49.80
16503;DHT22;53067;48.114;11.694;2022-09-14T13:48:38;27.00;50.00
16503;DHT22;53067;48.114;11.694;2022-09-14T13:51:06;27.00;50.40
16503;DHT22;53067;48.114;11.694;2022-09-14T13:53:52;26.90;50.70
16503;DHT22;53067;48.114;11.694;2022-09-14T13:56:31;26.90;50.50
16503;DHT22;53067;48.114;11.694;2022-09-14T14:04:34;27.00;50.80
16503;DHT22;53067;48.114;11.694;2022-09-14T14:07:31;27.10;50.80
16503;DHT22;53067;48.114;11.694;2022-09-14T14:09:57;27.00;50.40
16503;DHT22;53067;48.114;11.694;2022-09-14T14:12:28;26.90;50.70
16503;DHT22;53067;48.114;11.694;2022-09-14T14:14:58;26.80;50.70
16503;DHT22;53067;48.114;11.694;2022-09-14T14:17:32;26.80;50.90
16503;DHT22;53067;48.114;11.694;2022-09-14T14:25:45;26.70;50.90
16503;DHT22;53067;48.114;11.694;2022-09-14T14:28:26;26.60;51.30
16503;DHT22;53067;48.114;11.694;2022-09-14T14:30:55;26.50;51.40
16503;DHT22;53067;48.114;11.694;2022-09-14T14:33:24;26.40;51.40
16503;DHT22;53067;48.114;11.694;2022-09-14T14:35:52;26.30;51.20
16503;DHT22;53067;48.114;11.694;2022-09-14T14:38:22;26.30;51.40
16503;DHT22;53067;48.114;11.694;2022-09-14T14:40:51;26.20;51.50
16503;DHT22;53067;48.114;11.694;2022-09-14T14:43:23;26.20;51.70
16503;DHT22;53067;48.114;11.694;2022-09-14T14:45:57;26.10;51.80
16503;DHT22;53067;48.114;11.694;2022-09-14T14:48:25;26.10;52.00
16503;DHT22;53067;48.114;11.694;2022-09-14T14:50:53;26.00;51.90
16503;DHT22;53067;48.114;11.694;2022-09-14T14:53:22;25.90;51.90
16503;DHT22;53067;48.114;11.694;2022-09-14T14:55:50;25.90;51.60
16503;DHT22;53067;48.114;11.694;2022-09-14T14:58:20;25.90;51.60
16503;DHT22;53067;48.114;11.694;2022-09-14T15:00:48;25.80;52.00
16503;DHT22;53067;48.114;11.694;2022-09-14T15:03:17;25.80;52.30
16503;DHT22;53067;48.114;11.694;2022-09-14T15:05:46;25.80;52.60
16503;DHT22;53067;48.114;11.694;2022-09-14T15:08:15;25.80;52.60
16503;DHT22;53067;48.114;11.694;2022-09-14T15:10:44;25.70;52.70
16503;DHT22;53067;48.114;11.694;2022-09-14T15:13:12;25.60;52.90
16503;DHT22;53067;48.114;11.694;2022-09-14T15:15:40;25.50;52.80
16503;DHT22;53067;48.114;11.694;2022-09-14T15:18:08;25.50;52.80
16503;DHT22;53067;48.114;11.694;2022-09-14T15:20:37;25.40;53.00
16503;DHT22;53067;48.114;11.694;2022-09-14T15:23:05;25.40;53.00
16503;DHT22;53067;48.114;11.694;2022-09-14T15:25:33;25.30;53.00
16503;DHT22;53067;48.114;11.694;2022-09-14T15:28:01;25.30;53.90
16503;DHT22;53067;48.114;11.694;2022-09-14T15:30:31;25.30;53.40
16503;DHT22;53067;48.114;11.694;2022-09-14T15:32:58;25.20;53.30
16503;DHT22;53067;48.114;11.694;2022-09-14T15:35:26;25.20;53.50
16503;DHT22;53067;48.114;11.694;2022-09-14T15:37:53;25.10;53.40
16503;DHT22;53067;48.114;11.694;2022-09-14T15:40:21;25.10;53.40
16503;DHT22;53067;48.114;11.694;2022-09-14T15:42:48;25.10;54.00
16503;DHT22;53067;48.114;11.694;2022-09-14T15:45:16;25.00;54.70
16503;DHT22;53067;48.114;11.694;2022-09-14T15:47:43;24.90;55.40
16503;DHT22;53067;48.114;11.694;2022-09-14T15:50:13;24.80;56.50
16503;DHT22;53067;48.114;11.694;2022-09-14T15:52:41;24.60;56.40
16503;DHT22;53067;48.114;11.694;2022-09-14T15:55:10;24.50;57.00
16503;DHT22;53067;48.114;11.694;2022-09-14T15:57:38;24.50;58.30
16503;DHT22;53067;48.114;11.694;2022-09-14T16:00:08;24.40;60.30
16503;DHT22;53067;48.114;11.694;2022-09-14T16:02:36;24.20;61.30
16503;DHT22;53067;48.114;11.694;2022-09-14T16:05:05;23.90;62.70
16503;DHT22;53067;48.114;11.694;2022-09-14T16:07:33;23.80;63.10
16503;DHT22;53067;48.114;11.694;2022-09-14T16:10:00;23.60;64.20
16503;DHT22;53067;48.114;11.694;2022-09-14T16:12:27;23.40;64.40
16503;DHT22;53067;48.114;11.694;2022-09-14T16:14:55;23.30;65.10
16503;DHT22;53067;48.114;11.694;2022-09-14T16:17:23;23.10;65.60
16503;DHT22;53067;48.114;11.694;2022-09-14T16:19:50;23.00;66.10
16503;DHT22;53067;48.114;11.694;2022-09-14T16:22:18;23.00;67.00
16503;DHT22;53067;48.114;11.694;2022-09-14T16:24:47;23.00;66.90
16503;DHT22;53067;48.114;11.694;2022-09-14T16:27:14;22.90;67.10
16503;DHT22;53067;48.114;11.694;2022-09-14T16:29:42;22.80;67.60
16503;DHT22;53067;48.114;11.694;2022-09-14T16:32:10;22.70;67.80
16503;DHT22;53067;48.114;11.694;2022-09-14T16:34:37;22.70;68.30
16503;DHT22;53067;48.114;11.694;2022-09-14T16:37:05;22.70;68.60
16503;DHT22;53067;48.114;11.694;2022-09-14T16:39:32;22.60;68.20
16503;DHT22;53067;48.114;11.694;2022-09-14T16:42:01;22.60;68.90
16503;DHT22;53067;48.114;11.694;2022-09-14T16:44:29;22.50;69.10
16503;DHT22;53067;48.114;11.694;2022-09-14T16:46:57;22.40;69.50
16503;DHT22;53067;48.114;11.694;2022-09-14T16:49:25;22.40;69.70
16503;DHT22;53067;48.114;11.694;2022-09-14T16:51:54;22.40;70.00
16503;DHT22;53067;48.114;11.694;2022-09-14T16:54:23;22.40;70.10
16503;DHT22;53067;48.114;11.694;2022-09-14T16:56:51;22.40;70.40
16503;DHT22;53067;48.114;11.694;2022-09-14T16:59:20;22.30;70.80
16503;DHT22;53067;48.114;11.694;2022-09-14T17:01:48;22.30;71.00
16503;DHT22;53067;48.114;11.694;2022-09-14T17:04:17;22.30;71.40
16503;DHT22;53067;48.114;11.694;2022-09-14T17:06:49;22.30;71.50
16503;DHT22;53067;48.114;11.694;2022-09-14T17:09:19;22.30;71.50
16503;DHT22;53067;48.114;11.694;2022-09-14T17:11:47;22.20;71.50